Ashwaubenon, Wisconsin
Current Conditions -  °F | °C
As of 1:53 AM on Tuesday 27 Jan 2015 (Local Time) from KGRB Reporting Station
Overcast Overcast  
Wind Chill: -9°   Ceiling: 2500
Heat Index: -4°   Visibility: 10mi
Dew Point: -7°   Wind: 7mph
Humidity: 84%   Direction: 80°E
Pressure: 30.01"   Gusts: NA
Location:  44.48°N, 88.07°W
Report Text: KGRB 270753Z AUTO 08006KT 10SM OVC025 M04/M07 A3001 RMK AO2 SLP173 T10441067
Loading
Personal Weather Stations






























Interactive Weather Map New forecast layout! Learn more

10-Day Weather Forecast

Advertisements
Track Severe Weather on mobile